Time;durP1;ratioP1;P1;durP2;ratioP2;P2;SDS_P1;SDS_P2;PMS_P1;PMS_P2;Temp;Humidity;BMP_temperature;BMP_pressure;BME280_temperature;BME280_humidity;BME280_pressure;Samples;Min_cycle;Max_cycle;Signal;HPM_P1;HPM_P2
2022/07/04 00:01:30;;;;;;;4.30;2.93;;;16.70;99.90;;;;;;5046149;28;20487;-71
2022/07/04 00:04:40;;;;;;;3.30;3.00;;;16.70;99.90;;;;;;5040975;28;20493;-70
2022/07/04 00:07:31;;;;;;;4.50;3.23;;;16.70;99.90;;;;;;5041973;28;20525;-70
2022/07/04 00:10:30;;;;;;;3.20;3.00;;;16.60;99.90;;;;;;5040070;28;20486;-69
2022/07/04 00:14:03;;;;;;;;;;;;;;;;;;;;;
2022/07/04 00:17:11;;;;;;;5.03;2.80;;;16.60;99.90;;;;;;5043843;28;20455;-69
2022/07/04 00:20:17;;;;;;;4.80;3.77;;;16.50;99.90;;;;;;5041660;28;20565;-70
2022/07/04 00:23:19;;;;;;;4.10;3.70;;;16.50;99.90;;;;;;5042911;28;20458;-70
2022/07/04 00:26:28;;;;;;;3.80;3.30;;;16.50;99.90;;;;;;5040987;28;20486;-69
2022/07/04 00:30:02;;;;;;;6.40;3.40;;;16.50;99.90;;;;;;5046386;28;20474;-69
2022/07/04 00:32:54;;;;;;;4.90;3.37;;;16.50;99.90;;;;;;5042610;28;20454;-69
2022/07/04 00:35:59;;;;;;;4.17;3.30;;;16.40;99.90;;;;;;5038845;28;20486;-70
2022/07/04 00:39:01;;;;;;;4.20;3.57;;;16.40;99.90;;;;;;5043731;28;20519;-69
2022/07/04 00:42:13;;;;;;;4.63;3.43;;;16.30;99.90;;;;;;5043937;28;20494;-69
2022/07/04 00:45:02;;;;;;;3.90;3.13;;;16.30;99.90;;;;;;5043608;28;20494;-69
2022/07/04 00:48:07;;;;;;;4.13;3.47;;;16.30;99.90;;;;;;5043892;28;20489;-69
2022/07/04 00:50:57;;;;;;;4.97;4.17;;;16.30;99.90;;;;;;5040223;28;20478;-69
2022/07/04 00:53:52;;;;;;;4.27;3.87;;;16.30;99.90;;;;;;5046408;28;20530;-69
2022/07/04 00:57:02;;;;;;;4.77;4.37;;;16.30;99.90;;;;;;5044007;28;20454;-70
2022/07/04 01:03:14;;;;;;;5.23;4.40;;;16.20;99.90;;;;;;5043645;28;23175;-70
2022/07/04 01:06:27;;;;;;;7.10;4.60;;;16.20;99.90;;;;;;5037953;28;20483;-69
2022/07/04 01:09:43;;;;;;;;;;;;;;;;;;;;;
2022/07/04 01:12:54;;;;;;;6.53;5.90;;;16.10;99.90;;;;;;5045324;28;20618;-69
2022/07/04 01:16:09;;;;;;;7.03;5.47;;;16.20;99.90;;;;;;5043734;28;20479;-69
2022/07/04 01:19:06;;;;;;;6.87;6.27;;;16.20;99.90;;;;;;5038728;28;21044;-70
2022/07/04 01:22:50;;;;;;;;;;;;;;;;;;;;;
2022/07/04 01:26:13;;;;;;;9.07;6.07;;;16.10;99.90;;;;;;5039599;28;20481;-69
2022/07/04 01:29:08;;;;;;;10.10;6.90;;;16.20;99.90;;;;;;5039680;28;20547;-69
2022/07/04 01:32:07;;;;;;;6.70;6.10;;;16.10;99.90;;;;;;5043780;28;20537;-69
2022/07/04 01:35:16;;;;;;;;;;;;;;;;;;;;;
2022/07/04 01:38:33;;;;;;;8.93;8.13;;;16.10;99.90;;;;;;5037136;28;20466;-68
2022/07/04 01:41:36;;;;;;;9.83;8.00;;;16.10;99.90;;;;;;5042878;28;20524;-69
2022/07/04 01:44:42;;;;;;;;;;;;;;;;;;;;;
2022/07/04 01:47:46;;;;;;;9.23;8.33;;;16.00;99.90;;;;;;5043880;28;21131;-68
2022/07/04 01:50:36;;;;;;;9.27;8.43;;;15.90;99.90;;;;;;5040274;28;20462;-70
2022/07/04 01:53:39;;;;;;;8.77;7.97;;;15.90;99.90;;;;;;5040937;28;20571;-69
2022/07/04 01:57:05;;;;;;;8.93;7.93;;;15.90;99.90;;;;;;5041282;28;20588;-69
2022/07/04 02:03:24;;;;;;;10.33;9.33;;;15.80;99.90;;;;;;5043892;28;22334;-69
2022/07/04 02:06:28;;;;;;;10.13;9.17;;;15.90;99.90;;;;;;5041657;28;20830;-70
2022/07/04 02:09:35;;;;;;;10.20;9.40;;;15.80;99.90;;;;;;5040079;28;20585;-69
2022/07/04 02:15:55;;;;;;;12.03;11.03;;;15.80;99.90;;;;;;5047518;28;20578;-69
2022/07/04 02:19:27;;;;;;;12.50;11.30;;;15.80;99.90;;;;;;5042547;28;20560;-69
2022/07/04 02:22:20;;;;;;;11.47;10.33;;;15.80;99.90;;;;;;5048719;28;20459;-69
2022/07/04 02:25:18;;;;;;;11.70;10.60;;;15.70;99.90;;;;;;5042933;28;20517;-70
2022/07/04 02:28:35;;;;;;;12.40;11.00;;;15.70;99.90;;;;;;5044207;28;20569;-69
2022/07/04 02:31:37;;;;;;;12.00;11.00;;;15.80;99.90;;;;;;5050369;28;20465;-69
2022/07/04 02:35:02;;;;;;;;;;;;;;;;;;;;;
2022/07/04 02:38:18;;;;;;;10.80;9.80;;;15.70;99.90;;;;;;5041269;28;20474;-70
2022/07/04 02:44:52;;;;;;;11.07;10.07;;;15.60;99.90;;;;;;5046166;28;20477;-69
2022/07/04 02:48:05;;;;;;;10.90;9.90;;;15.60;99.90;;;;;;5046384;28;20458;-69
2022/07/04 02:51:16;;;;;;;11.07;9.97;;;15.60;99.90;;;;;;5044979;28;20481;-69
2022/07/04 02:54:23;;;;;;;11.40;10.30;;;15.50;99.90;;;;;;5045878;28;20477;-69
2022/07/04 02:57:37;;;;;;;11.30;10.03;;;15.50;99.90;;;;;;5050165;28;20451;-69
2022/07/04 03:00:27;;;;;;;11.40;10.50;;;15.70;99.90;;;;;;5048056;28;20893;-69
2022/07/04 03:03:26;;;;;;;9.40;8.50;;;15.60;99.90;;;;;;5046676;28;20567;-69
2022/07/04 03:06:49;;;;;;;9.83;8.90;;;15.50;99.90;;;;;;5048750;28;20490;-70
2022/07/04 03:10:06;;;;;;;9.90;9.00;;;15.50;99.90;;;;;;5036292;28;20493;-69
2022/07/04 03:13:24;;;;;;;10.20;8.90;;;15.50;99.90;;;;;;5043853;28;20962;-69
2022/07/04 03:16:37;;;;;;;10.80;8.90;;;15.50;99.90;;;;;;5043195;28;21011;-69
2022/07/04 03:19:40;;;;;;;9.60;8.80;;;15.40;99.90;;;;;;5046714;28;20474;-70
2022/07/04 03:22:46;;;;;;;8.93;8.03;;;15.40;99.90;;;;;;5047940;28;20818;-69
2022/07/04 03:25:53;;;;;;;10.40;9.50;;;15.30;99.90;;;;;;5045619;28;20470;-69
2022/07/04 03:29:27;;;;;;;9.60;8.70;;;15.30;99.90;;;;;;5049322;28;20616;-69
2022/07/04 03:32:42;;;;;;;11.30;9.20;;;15.30;99.90;;;;;;5047484;28;20450;-68
2022/07/04 03:35:44;;;;;;;9.57;8.67;;;15.40;99.90;;;;;;5042255;28;20490;-69
2022/07/04 03:39:01;;;;;;;8.90;8.10;;;15.30;99.90;;;;;;5043066;28;20478;-69
2022/07/04 03:42:21;;;;;;;9.80;9.00;;;15.30;99.90;;;;;;5046545;28;20451;-69
2022/07/04 03:45:44;;;;;;;10.60;8.93;;;15.30;99.90;;;;;;5047604;28;20471;-69
2022/07/04 03:49:03;;;;;;;10.07;9.17;;;15.20;99.90;;;;;;5039003;28;20482;-69
2022/07/04 03:52:10;;;;;;;10.63;9.70;;;15.20;99.90;;;;;;5037724;28;20912;-69
2022/07/04 03:55:07;;;;;;;10.47;9.50;;;15.30;99.90;;;;;;5042689;28;20560;-70
2022/07/04 03:58:10;;;;;;;11.73;10.60;;;15.30;99.90;;;;;;5047853;28;20547;-69
2022/07/04 04:01:24;;;;;;;12.20;10.57;;;15.40;99.90;;;;;;5045689;28;20496;-70
2022/07/04 04:07:57;;;;;;;11.47;10.20;;;15.40;99.90;;;;;;5047437;28;20955;-70
2022/07/04 04:10:57;;;;;;;13.93;11.00;;;15.40;99.90;;;;;;5040979;28;20482;-70
2022/07/04 04:14:19;;;;;;;11.23;9.70;;;15.50;99.90;;;;;;5043117;28;20455;-69
2022/07/04 04:17:35;;;;;;;12.90;10.23;;;15.40;99.90;;;;;;5046547;28;20546;-69
2022/07/04 04:21:04;;;;;;;12.37;11.10;;;15.50;99.90;;;;;;5040966;28;20846;-69
2022/07/04 04:24:22;;;;;;;10.97;9.87;;;15.50;99.90;;;;;;5041833;28;20531;-69
2022/07/04 04:27:41;;;;;;;10.57;9.47;;;15.50;99.90;;;;;;5044925;28;20451;-69
2022/07/04 04:31:04;;;;;;;;;;;;;;;;;;;;;
2022/07/04 04:34:03;;;;;;;10.30;9.40;;;15.70;99.90;;;;;;5046500;28;20489;-69
2022/07/04 04:37:04;;;;;;;10.70;8.90;;;15.70;99.90;;;;;;5044588;28;20457;-69
2022/07/04 04:40:11;;;;;;;9.33;8.37;;;15.70;99.90;;;;;;5044739;28;20569;-70
2022/07/04 04:43:25;;;;;;;8.80;8.00;;;15.70;99.90;;;;;;5035154;28;20454;-70
2022/07/04 04:46:41;;;;;;;9.10;8.30;;;15.80;99.90;;;;;;5044327;28;20455;-69
2022/07/04 04:49:37;;;;;;;8.33;7.53;;;15.80;99.90;;;;;;5043955;28;20647;-70
2022/07/04 04:52:44;;;;;;;8.03;7.23;;;15.80;99.90;;;;;;5041838;28;20470;-69
2022/07/04 04:55:58;;;;;;;7.40;6.70;;;15.80;99.90;;;;;;5044314;28;20559;-69
2022/07/04 04:58:53;;;;;;;6.93;6.30;;;15.80;99.90;;;;;;5042558;28;20554;-69
2022/07/04 05:02:01;;;;;;;7.00;6.30;;;15.80;99.90;;;;;;5031670;28;20455;-70
2022/07/04 05:05:11;;;;;;;6.83;6.10;;;15.90;99.90;;;;;;5041852;28;20475;-75
2022/07/04 05:08:10;;;;;;;5.67;5.10;;;16.00;99.90;;;;;;5038544;28;20451;-76
2022/07/04 05:15:08;;;;;;;4.37;4.03;;;16.10;99.90;;;;;;5040297;28;21085;-69
2022/07/04 05:18:10;;;;;;;4.10;3.70;;;16.20;99.90;;;;;;5041873;28;20458;-70
2022/07/04 05:21:28;;;;;;;4.43;4.03;;;16.30;99.90;;;;;;5040320;28;20443;-70
2022/07/04 05:24:22;;;;;;;5.83;4.30;;;16.40;99.90;;;;;;5021857;28;20470;-68
2022/07/04 05:27:11;;;;;;;4.37;3.97;;;16.40;99.90;;;;;;5034725;28;20462;-69
2022/07/04 05:30:05;;;;;;;4.63;4.23;;;16.50;99.90;;;;;;5019887;28;21030;-69
2022/07/04 05:33:00;;;;;;;4.30;3.90;;;16.50;99.90;;;;;;5015039;28;20485;-69
2022/07/04 05:35:56;;;;;;;3.83;3.40;;;16.60;99.90;;;;;;5032294;28;20485;-70
2022/07/04 05:38:49;;;;;;;5.53;3.27;;;16.60;99.90;;;;;;5027718;28;20518;-70
2022/07/04 05:41:42;;;;;;;2.93;2.73;;;16.60;99.90;;;;;;5032751;28;20984;-69
2022/07/04 05:44:40;;;;;;;3.27;2.77;;;16.70;99.90;;;;;;5026792;28;20614;-68
2022/07/04 05:47:38;;;;;;;3.37;2.73;;;16.70;99.90;;;;;;5037538;28;20445;-68
2022/07/04 05:50:27;;;;;;;3.50;2.43;;;16.70;99.90;;;;;;5043035;28;20532;-69
2022/07/04 05:53:23;;;;;;;3.23;2.70;;;16.70;99.90;;;;;;5036442;28;20450;-69
2022/07/04 05:56:14;;;;;;;2.17;1.97;;;16.80;99.90;;;;;;5017401;28;20564;-69
2022/07/04 05:59:13;;;;;;;6.43;2.37;;;16.80;99.90;;;;;;5026767;28;20470;-69
2022/07/04 06:02:03;;;;;;;3.00;2.17;;;16.80;99.90;;;;;;5028459;28;21072;-70
2022/07/04 06:04:52;;;;;;;3.30;2.00;;;16.80;99.90;;;;;;5017399;28;20493;-70
2022/07/04 06:07:40;;;;;;;3.43;2.30;;;16.90;99.90;;;;;;5020357;28;20904;-70
2022/07/04 06:10:29;;;;;;;2.90;2.30;;;16.90;99.90;;;;;;5024215;28;20563;-70
2022/07/04 06:13:17;;;;;;;5.10;2.60;;;16.90;99.90;;;;;;5031712;28;20458;-70
2022/07/04 06:16:05;;;;;;;4.67;2.30;;;17.00;99.90;;;;;;5028632;28;20524;-70
2022/07/04 06:18:55;;;;;;;3.43;1.90;;;17.00;99.90;;;;;;5035216;28;20577;-70
2022/07/04 06:21:43;;;;;;;2.40;2.17;;;17.00;99.90;;;;;;5037662;28;21050;-70
2022/07/04 06:24:31;;;;;;;3.73;2.03;;;17.00;99.90;;;;;;5040602;28;20512;-70
2022/07/04 06:27:22;;;;;;;2.00;1.77;;;17.10;99.90;;;;;;5039417;28;20512;-70
2022/07/04 06:30:11;;;;;;;2.23;2.03;;;17.10;99.90;;;;;;5035007;28;20521;-70
2022/07/04 06:33:00;;;;;;;10.43;2.50;;;17.20;99.90;;;;;;5035201;28;20454;-69
2022/07/04 06:35:54;;;;;;;3.77;2.03;;;17.20;99.90;;;;;;4994298;28;1081701;-69
2022/07/04 06:38:42;;;;;;;3.50;2.00;;;17.20;99.90;;;;;;5025459;28;20224;-69
2022/07/04 06:41:30;;;;;;;4.40;2.13;;;17.20;99.90;;;;;;5041862;28;21018;-70
2022/07/04 06:44:18;;;;;;;4.97;1.90;;;17.30;99.90;;;;;;5035060;28;20463;-69
2022/07/04 06:47:07;;;;;;;2.33;2.10;;;17.40;99.90;;;;;;5041078;28;20512;-70
2022/07/04 06:49:56;;;;;;;2.83;2.40;;;17.40;99.90;;;;;;5030036;28;20585;-70
2022/07/04 06:52:46;;;;;;;2.40;2.20;;;17.50;99.90;;;;;;5030434;28;20515;-70
2022/07/04 06:55:35;;;;;;;2.93;2.17;;;17.50;99.90;;;;;;5030356;28;20481;-68
2022/07/04 06:58:23;;;;;;;3.10;1.87;;;17.50;99.90;;;;;;5035113;28;20479;-69
2022/07/04 07:01:15;;;;;;;2.77;2.37;;;17.50;99.90;;;;;;5040180;28;20466;-70
2022/07/04 07:04:03;;;;;;;4.37;2.33;;;17.60;99.90;;;;;;5034842;28;20447;-71
2022/07/04 07:06:51;;;;;;;4.20;2.33;;;17.60;99.90;;;;;;5038924;28;20450;-68
2022/07/04 07:09:41;;;;;;;4.17;1.90;;;17.70;99.90;;;;;;5035672;28;20558;-71
2022/07/04 07:12:33;;;;;;;4.97;2.30;;;17.80;99.90;;;;;;5042075;28;20494;-70
2022/07/04 07:15:21;;;;;;;4.13;2.30;;;17.80;99.90;;;;;;5038612;28;20577;-68
2022/07/04 07:18:10;;;;;;;2.60;2.37;;;17.80;99.90;;;;;;5039357;28;20550;-70
2022/07/04 07:21:00;;;;;;;2.13;1.90;;;17.80;99.90;;;;;;5037057;28;20586;-70
2022/07/04 07:23:49;;;;;;;2.53;2.00;;;17.80;99.90;;;;;;5030146;28;20517;-70
2022/07/04 07:26:39;;;;;;;4.03;2.10;;;17.90;99.90;;;;;;5038234;28;20459;-70
2022/07/04 07:29:27;;;;;;;3.23;1.97;;;17.90;99.90;;;;;;5037724;28;20474;-70
2022/07/04 07:32:17;;;;;;;2.73;1.90;;;17.90;99.90;;;;;;5039594;28;20600;-70
2022/07/04 07:35:06;;;;;;;1.97;1.83;;;17.90;99.90;;;;;;5041292;28;20531;-69
2022/07/04 07:37:54;;;;;;;3.47;1.87;;;17.90;99.90;;;;;;5036873;28;20599;-68
2022/07/04 07:40:42;;;;;;;2.23;1.60;;;18.00;99.90;;;;;;5039913;28;20837;-70
2022/07/04 07:43:32;;;;;;;1.47;1.37;;;18.10;99.90;;;;;;5030388;28;21049;-68
2022/07/04 07:46:20;;;;;;;2.00;1.80;;;18.20;99.90;;;;;;5026843;28;20606;-68
2022/07/04 07:49:10;;;;;;;2.40;1.67;;;18.30;99.90;;;;;;5021811;28;20486;-68
2022/07/04 07:52:00;;;;;;;5.10;1.63;;;18.40;99.90;;;;;;5029455;28;20605;-70
2022/07/04 07:54:48;;;;;;;3.00;1.60;;;18.40;99.90;;;;;;5027756;28;20579;-70
2022/07/04 07:57:48;;;;;;;2.10;1.70;;;18.30;99.90;;;;;;5035443;28;20457;-70
2022/07/04 08:00:37;;;;;;;1.63;1.47;;;18.30;99.90;;;;;;5031037;28;20913;-70
2022/07/04 08:06:49;;;;;;;1.50;1.40;;;18.40;99.90;;;;;;5032891;28;20470;-67
2022/07/04 08:09:59;;;;;;;2.30;1.53;;;18.50;99.90;;;;;;5032458;28;20570;-70
2022/07/04 08:12:47;;;;;;;2.50;1.40;;;18.60;99.90;;;;;;5039224;28;20470;-67
2022/07/04 08:15:37;;;;;;;3.33;2.07;;;18.60;99.90;;;;;;5040837;28;20466;-67
2022/07/04 08:18:25;;;;;;;2.03;1.53;;;18.60;99.90;;;;;;5037101;28;20694;-67
2022/07/04 08:21:14;;;;;;;1.60;1.40;;;18.80;99.90;;;;;;5039580;28;20462;-67
2022/07/04 08:24:02;;;;;;;2.43;1.47;;;18.80;99.90;;;;;;5041102;28;20967;-67
2022/07/04 08:27:07;;;;;;;2.57;1.53;;;18.90;99.90;;;;;;5040888;28;20505;-68
2022/07/04 08:29:56;;;;;;;2.87;1.53;;;18.90;99.90;;;;;;5036886;28;20899;-68
2022/07/04 08:32:48;;;;;;;1.80;1.40;;;19.00;99.90;;;;;;5040504;28;20870;-68
2022/07/04 08:35:37;;;;;;;1.13;1.03;;;19.00;99.90;;;;;;5038919;28;20521;-68
2022/07/04 08:38:27;;;;;;;2.00;1.50;;;19.00;99.90;;;;;;5036693;28;20505;-68
2022/07/04 08:41:17;;;;;;;2.27;1.40;;;19.10;99.90;;;;;;5038659;28;20537;-68
2022/07/04 08:44:14;;;;;;;2.30;1.40;;;19.10;99.90;;;;;;5040088;28;20459;-68
2022/07/04 08:47:02;;;;;;;2.20;1.47;;;19.20;99.90;;;;;;5038979;28;20470;-68
2022/07/04 08:49:59;;;;;;;2.20;1.40;;;19.20;99.90;;;;;;5036843;28;20708;-69
2022/07/04 08:52:57;;;;;;;1.40;1.30;;;19.30;99.90;;;;;;5039789;28;20529;-68
2022/07/04 08:58:53;;;;;;;2.30;1.43;;;19.50;99.90;;;;;;5036848;28;20515;-68
2022/07/04 09:01:44;;;;;;;1.30;1.20;;;19.60;99.90;;;;;;5025640;28;20554;-69
2022/07/04 09:04:34;;;;;;;3.00;1.70;;;19.50;99.90;;;;;;5025170;28;20474;-69
2022/07/04 09:07:24;;;;;;;2.90;1.43;;;19.50;99.90;;;;;;5025383;28;20511;-69
2022/07/04 09:10:14;;;;;;;1.57;1.47;;;19.50;99.90;;;;;;5022133;28;20521;-69
2022/07/04 09:13:04;;;;;;;2.30;1.40;;;19.40;99.90;;;;;;5025954;28;20485;-69
2022/07/04 09:16:02;;;;;;;2.40;1.70;;;19.50;99.90;;;;;;5023995;28;20490;-69
2022/07/04 09:18:54;;;;;;;1.60;1.50;;;19.60;99.90;;;;;;5026199;28;24256;-69
2022/07/04 09:21:47;;;;;;;2.50;1.60;;;19.70;99.90;;;;;;5019573;28;20820;-68
2022/07/04 09:24:48;;;;;;;2.20;1.30;;;19.70;99.90;;;;;;5030217;28;20566;-68
2022/07/04 09:27:39;;;;;;;1.77;1.67;;;19.80;99.90;;;;;;5024306;28;20455;-69
2022/07/04 09:30:30;;;;;;;2.70;1.80;;;19.80;99.90;;;;;;5030356;28;20495;-69
2022/07/04 09:33:18;;;;;;;2.03;1.40;;;19.80;99.90;;;;;;5023402;28;20889;-68
2022/07/04 09:36:12;;;;;;;2.60;1.50;;;19.80;99.90;;;;;;5033969;28;20489;-68
2022/07/04 09:39:11;;;;;;;4.03;1.80;;;19.80;99.90;;;;;;5033894;28;20562;-69
2022/07/04 09:42:03;;;;;;;1.47;1.37;;;19.90;99.90;;;;;;5033207;28;20451;-69
2022/07/04 09:44:52;;;;;;;2.40;1.40;;;20.00;99.90;;;;;;5038779;28;20553;-69
2022/07/04 09:47:42;;;;;;;2.50;1.40;;;20.10;99.90;;;;;;5031569;28;20462;-68
2022/07/04 09:50:32;;;;;;;2.40;1.20;;;20.10;99.90;;;;;;5034068;28;20486;-69
2022/07/04 09:53:26;;;;;;;1.60;1.33;;;20.20;99.90;;;;;;5030004;28;20483;-69
2022/07/04 09:56:14;;;;;;;1.40;1.30;;;20.30;99.90;;;;;;5032550;28;21132;-68
2022/07/04 09:59:06;;;;;;;1.87;1.23;;;20.30;99.90;;;;;;5034528;28;21024;-69
2022/07/04 10:02:07;;;;;;;2.03;1.30;;;20.40;99.90;;;;;;5032492;28;20589;-69
2022/07/04 10:04:55;;;;;;;1.77;1.27;;;20.50;99.90;;;;;;5031561;28;21002;-69
2022/07/04 10:07:44;;;;;;;1.07;0.97;;;20.60;99.90;;;;;;5031421;28;20455;-69
2022/07/04 10:10:34;;;;;;;1.80;1.20;;;20.70;99.90;;;;;;5035875;28;21004;-69
2022/07/04 10:13:23;;;;;;;1.73;1.00;;;20.70;99.90;;;;;;5028982;28;20507;-69
2022/07/04 10:16:16;;;;;;;2.00;1.50;;;20.80;99.90;;;;;;5040212;28;20864;-69
2022/07/04 10:19:06;;;;;;;2.00;1.20;;;20.80;99.90;;;;;;5039225;28;20870;-68
2022/07/04 10:21:55;;;;;;;1.57;1.20;;;20.80;99.90;;;;;;5033878;28;20489;-69
2022/07/04 10:24:43;;;;;;;2.13;1.40;;;20.80;99.90;;;;;;5040548;28;20528;-69
2022/07/04 10:27:31;;;;;;;2.63;1.20;;;20.80;99.90;;;;;;5031850;28;20502;-69
2022/07/04 10:30:25;;;;;;;1.20;1.03;;;20.90;99.90;;;;;;5038076;28;20470;-69
2022/07/04 10:33:15;;;;;;;1.30;1.20;;;21.00;99.90;;;;;;5039346;28;20615;-69
2022/07/04 10:36:14;;;;;;;1.17;1.00;;;21.10;99.90;;;;;;5040315;28;20947;-69
2022/07/04 10:39:04;;;;;;;1.13;1.10;;;21.30;99.90;;;;;;5036386;28;20528;-69
2022/07/04 10:42:22;;;;;;;1.27;1.17;;;21.40;99.90;;;;;;5034687;28;20458;-69
2022/07/04 10:45:34;;;;;;;2.30;1.20;;;21.40;99.90;;;;;;5039895;28;20557;-68
2022/07/04 10:48:25;;;;;;;2.30;1.40;;;21.30;99.90;;;;;;5029440;28;20548;-69
2022/07/04 10:51:15;;;;;;;2.10;1.30;;;21.30;99.90;;;;;;5036421;28;20459;-67
2022/07/04 10:54:07;;;;;;;5.03;1.50;;;21.30;99.90;;;;;;5036252;28;20446;-68
2022/07/04 10:56:56;;;;;;;1.57;1.00;;;21.40;99.90;;;;;;5036049;28;20556;-68
2022/07/04 11:00:03;;;;;;;2.30;1.50;;;21.40;99.90;;;;;;5039470;28;20534;-68
2022/07/04 11:03:16;;;;;;;2.63;1.10;;;21.40;99.90;;;;;;5040700;28;20454;-68
2022/07/04 11:06:26;;;;;;;1.40;1.30;;;21.40;99.90;;;;;;5034433;28;20474;-68
2022/07/04 11:09:15;;;;;;;1.20;1.10;;;21.40;99.90;;;;;;5038320;28;20814;-68
2022/07/04 11:12:06;;;;;;;1.33;1.00;;;21.40;99.90;;;;;;5032128;28;20475;-68
2022/07/04 11:14:54;;;;;;;1.03;1.03;;;21.30;99.90;;;;;;5027077;28;20620;-68
2022/07/04 11:17:44;;;;;;;1.20;1.10;;;21.40;99.90;;;;;;5026643;28;21001;-68
2022/07/04 11:20:35;;;;;;;1.20;1.10;;;21.50;99.90;;;;;;5026925;28;20479;-68
2022/07/04 11:23:25;;;;;;;1.40;1.30;;;21.40;99.90;;;;;;5033340;28;20447;-68
2022/07/04 11:26:14;;;;;;;1.10;1.00;;;21.40;99.90;;;;;;5033567;28;20493;-69
2022/07/04 11:29:03;;;;;;;1.03;1.03;;;21.30;99.90;;;;;;5025370;28;20983;-68
2022/07/04 11:31:54;;;;;;;2.67;1.07;;;21.20;99.90;;;;;;5025459;28;20459;-67
2022/07/04 11:34:42;;;;;;;1.17;1.03;;;21.20;99.90;;;;;;5032443;28;20486;-66
2022/07/04 11:37:34;;;;;;;1.03;0.93;;;21.20;99.90;;;;;;5025459;28;20462;-67
2022/07/04 11:46:35;;;;;;;1.20;1.10;;;21.10;99.90;;;;;;5036566;28;20498;-68
2022/07/04 11:49:23;;;;;;;2.33;1.20;;;21.20;99.90;;;;;;5028264;28;21073;-67
2022/07/04 11:52:12;;;;;;;1.37;1.27;;;21.30;99.90;;;;;;5033899;28;20497;-68
2022/07/04 11:55:01;;;;;;;1.10;0.97;;;21.50;99.90;;;;;;5027321;28;20483;-68
2022/07/04 11:57:52;;;;;;;1.43;1.33;;;21.60;99.90;;;;;;5041354;28;20498;-68
2022/07/04 12:00:40;;;;;;;1.27;1.17;;;21.70;99.90;;;;;;5035872;28;20973;-68
2022/07/04 12:03:28;;;;;;;1.43;1.33;;;21.70;99.90;;;;;;5039973;28;20465;-68
2022/07/04 12:06:17;;;;;;;2.13;1.47;;;21.70;99.90;;;;;;5037466;28;20506;-68
2022/07/04 12:09:06;;;;;;;3.37;1.47;;;21.60;99.90;;;;;;5037108;28;20514;-68
2022/07/04 12:12:01;;;;;;;2.40;1.30;;;21.70;99.90;;;;;;5039229;28;20989;-68
2022/07/04 12:15:05;;;;;;;1.50;1.40;;;21.80;99.90;;;;;;5035525;28;20605;-68
2022/07/04 12:17:55;;;;;;;1.70;1.60;;;21.90;99.90;;;;;;5035559;28;20451;-67
2022/07/04 12:20:43;;;;;;;2.60;1.20;;;22.10;99.90;;;;;;5035473;28;20481;-69
2022/07/04 12:23:32;;;;;;;1.30;1.20;;;22.20;99.90;;;;;;5033100;28;20492;-68
2022/07/04 12:26:20;;;;;;;1.40;1.30;;;22.30;99.90;;;;;;5027274;28;20470;-68
2022/07/04 12:29:09;;;;;;;1.50;1.40;;;22.30;99.90;;;;;;5029704;28;20463;-68
2022/07/04 12:31:59;;;;;;;2.57;1.20;;;22.30;99.90;;;;;;5027223;28;21013;-68
2022/07/04 12:34:48;;;;;;;2.30;1.30;;;22.30;99.90;;;;;;5021729;28;21010;-68
2022/07/04 12:37:37;;;;;;;2.47;1.60;;;22.30;99.90;;;;;;5027725;28;23452;-68
2022/07/04 12:40:26;;;;;;;2.50;1.53;;;22.30;99.90;;;;;;5027662;28;20486;-69
2022/07/04 12:43:14;;;;;;;1.50;1.40;;;22.30;99.90;;;;;;5025258;28;20878;-69
2022/07/04 12:46:02;;;;;;;3.17;1.50;;;22.30;99.90;;;;;;5029247;28;20470;-69
2022/07/04 12:48:54;;;;;;;1.53;1.40;;;22.40;99.90;;;;;;5032826;28;20509;-69
2022/07/04 12:51:42;;;;;;;1.90;1.40;;;22.50;99.90;;;;;;5036719;28;20490;-69
2022/07/04 12:54:32;;;;;;;2.47;1.43;;;22.70;99.90;;;;;;5030094;28;20917;-68
2022/07/04 12:57:20;;;;;;;1.40;1.30;;;22.90;99.90;;;;;;5036797;28;20930;-68
2022/07/04 13:00:12;;;;;;;1.77;1.50;;;23.10;99.90;;;;;;5035043;28;20562;-69
2022/07/04 13:03:20;;;;;;;1.40;1.23;;;23.40;99.90;;;;;;5033047;28;20539;-68
2022/07/04 13:06:11;;;;;;;1.80;1.40;;;23.50;99.90;;;;;;5028915;28;20477;-68
2022/07/04 13:09:03;;;;;;;1.43;1.23;;;23.50;99.90;;;;;;5018978;28;20483;-68
2022/07/04 13:14:59;;;;;;;21.13;2.20;;;23.40;99.90;;;;;;5029074;28;20550;-73
2022/07/04 13:17:47;;;;;;;2.20;1.80;;;;;;;;;;5040808;28;20453;-67
2022/07/04 13:20:36;;;;;;;2.07;1.33;;;;;;;;;;5036535;28;20609;-70
2022/07/04 13:23:26;;;;;;;1.30;1.20;;;;;;;;;;5039621;28;20585;-70
2022/07/04 13:26:15;;;;;;;1.50;1.40;;;;;;;;;;5038614;28;20511;-69
2022/07/04 13:29:04;;;;;;;1.83;1.40;;;;;;;;;;5036043;28;21092;-69
2022/07/04 13:31:58;;;;;;;3.13;2.00;;;23.30;99.90;;;;;;5035935;28;20463;-70
2022/07/04 13:34:47;;;;;;;6.30;1.93;;;22.90;99.90;;;;;;5034584;28;20490;-69
2022/07/04 13:37:35;;;;;;;1.93;1.50;;;22.80;99.90;;;;;;5042062;28;21018;-69
2022/07/04 13:40:25;;;;;;;2.00;1.40;;;;;;;;;;5040935;28;20886;-68
2022/07/04 13:43:14;;;;;;;3.53;1.63;;;22.70;99.90;;;;;;5025062;28;22755;-69
2022/07/04 13:46:03;;;;;;;1.50;1.40;;;22.50;99.90;;;;;;5035694;28;20508;-69
2022/07/04 13:48:51;;;;;;;3.47;1.67;;;22.40;99.90;;;;;;5034257;28;20965;-68
2022/07/04 13:51:40;;;;;;;4.90;1.90;;;22.40;99.90;;;;;;5034377;28;20451;-68
2022/07/04 13:54:29;;;;;;;4.03;1.80;;;22.30;99.90;;;;;;5033204;28;20524;-68
2022/07/04 13:57:18;;;;;;;1.97;1.83;;;22.20;99.90;;;;;;5033149;28;20555;-68
2022/07/04 14:00:10;;;;;;;1.57;1.47;;;22.10;99.90;;;;;;5029721;28;20510;-69
2022/07/04 14:02:59;;;;;;;1.90;1.77;;;22.00;99.90;;;;;;5033176;28;20846;-69
2022/07/04 14:05:47;;;;;;;2.40;1.80;;;21.90;99.90;;;;;;5035230;28;20543;-68
2022/07/04 14:08:36;;;;;;;3.27;2.10;;;21.80;99.90;;;;;;5027751;28;20486;-67
2022/07/04 14:11:24;;;;;;;2.97;2.10;;;21.80;99.90;;;;;;5036070;28;20465;-68
2022/07/04 14:14:14;;;;;;;4.20;2.00;;;21.90;99.90;;;;;;5045041;28;21160;-67
2022/07/04 14:17:02;;;;;;;1.87;1.70;;;22.00;99.90;;;;;;5042197;28;20523;-67
2022/07/04 14:20:12;;;;;;;2.13;1.60;;;22.10;99.90;;;;;;5037046;28;20473;-69
2022/07/04 14:23:00;;;;;;;3.30;1.80;;;22.20;99.90;;;;;;5041290;28;20464;-72
2022/07/04 14:25:48;;;;;;;2.23;2.03;;;22.30;99.90;;;;;;5043325;28;20632;-68
2022/07/04 14:28:37;;;;;;;1.83;1.50;;;22.30;99.90;;;;;;5041729;28;20557;-70
2022/07/04 14:31:27;;;;;;;3.53;1.77;;;22.50;99.90;;;;;;5039597;28;20509;-69
2022/07/04 14:34:15;;;;;;;4.80;1.77;;;22.70;99.90;;;;;;5042856;28;20472;-69
2022/07/04 14:37:03;;;;;;;2.23;1.53;;;22.80;99.90;;;;;;5044801;28;20458;-70
2022/07/04 14:39:54;;;;;;;1.93;1.60;;;22.90;99.90;;;;;;5043678;28;20467;-69
2022/07/04 14:42:42;;;;;;;4.30;1.60;;;23.00;99.90;;;;;;5046210;28;20493;-70
2022/07/04 14:45:31;;;;;;;2.80;1.70;;;23.10;99.90;;;;;;5045960;28;20962;-66
2022/07/04 14:48:20;;;;;;;1.97;1.30;;;23.20;99.90;;;;;;5038353;28;20604;-67
2022/07/04 14:51:08;;;;;;;4.67;1.40;;;23.30;99.90;;;;;;5043549;28;20478;-66
2022/07/04 14:53:59;;;;;;;4.60;2.20;;;23.60;99.90;;;;;;5038419;28;20475;-67
2022/07/04 14:56:49;;;;;;;3.00;1.60;;;23.80;99.90;;;;;;5040470;28;20459;-66
2022/07/04 14:59:37;;;;;;;2.43;1.33;;;23.90;99.90;;;;;;5043577;28;20502;-69
2022/07/04 15:02:26;;;;;;;4.40;2.10;;;23.90;99.90;;;;;;5037030;28;20536;-69
2022/07/04 15:05:16;;;;;;;1.50;1.37;;;24.20;99.90;;;;;;5044394;28;20486;-69
2022/07/04 15:08:04;;;;;;;1.90;1.60;;;24.20;99.90;;;;;;5043667;28;20513;-69
2022/07/04 15:10:53;;;;;;;1.97;1.33;;;24.30;99.90;;;;;;5044972;28;20461;-69
2022/07/04 15:13:47;;;;;;;3.60;1.60;;;24.30;99.90;;;;;;5042770;28;20451;-69
2022/07/04 15:16:36;;;;;;;1.80;1.30;;;24.50;99.90;;;;;;5043252;28;20547;-69
2022/07/04 15:19:24;;;;;;;2.20;1.77;;;24.60;99.90;;;;;;5042184;28;20527;-70
2022/07/04 15:25:21;;;;;;;1.53;1.43;;;24.80;99.90;;;;;;5043606;28;20707;-69
2022/07/04 15:28:10;;;;;;;2.20;2.00;;;24.90;99.90;;;;;;5036431;28;20466;-69
2022/07/04 15:31:00;;;;;;;1.63;1.50;;;25.00;99.90;;;;;;5043871;28;20601;-69
2022/07/04 15:33:51;;;;;;;2.23;1.60;;;25.00;99.90;;;;;;5040763;28;20834;-69
2022/07/04 15:36:40;;;;;;;2.00;1.60;;;25.10;99.90;;;;;;5043981;28;20457;-69
2022/07/04 15:39:29;;;;;;;3.30;1.30;;;25.10;99.90;;;;;;5042151;28;20471;-68
2022/07/04 15:42:17;;;;;;;1.63;1.30;;;24.90;99.90;;;;;;5040792;28;20591;-68
2022/07/04 15:45:07;;;;;;;2.10;1.33;;;24.90;99.90;;;;;;5046246;28;20523;-69
2022/07/04 15:47:55;;;;;;;1.67;1.37;;;24.90;99.90;;;;;;5041656;28;20499;-68
2022/07/04 15:50:44;;;;;;;1.73;1.50;;;25.00;99.90;;;;;;5047414;28;20566;-68
2022/07/04 15:53:32;;;;;;;2.20;1.77;;;25.20;99.90;;;;;;5043786;28;20829;-68
2022/07/04 15:56:22;;;;;;;6.43;5.83;;;25.20;99.90;;;;;;5042854;28;20479;-68
2022/07/04 15:59:10;;;;;;;2.00;1.80;;;25.20;99.90;;;;;;5045580;28;20555;-68
2022/07/04 16:01:58;;;;;;;1.53;1.43;;;25.20;99.90;;;;;;5042251;28;20469;-69
2022/07/04 16:04:47;;;;;;;2.70;1.83;;;25.20;99.90;;;;;;5042215;28;20482;-69
2022/07/04 16:07:36;;;;;;;2.00;1.70;;;25.20;99.90;;;;;;5040278;28;20455;-69